This is the latest recevied weather packets stored in our database for station/object KD5NDU-15. If no packets are shown the sender has not sent any weather packets the latest 10 day(s).
| Time | Temp. | Humidity | Pressure | Rain* | Wind** | Luminosity | Snow |
|---|---|---|---|---|---|---|---|
| 1778185540 | 21.67° C | 62% | 1012.7 hPa | 0 mm | - | 510 W/m² | - |
| 1778185404 | 21.67° C | 60% | 1012.6 hPa | 0 mm | - | 366 W/m² | - |
| 1778184944 | 22.22° C | 62% | 1012.8 hPa | 0 mm | - | 554 W/m² | - |
| 1778184640 | 22.22° C | 59% | 1012.9 hPa | 0 mm | - | 471 W/m² | - |
| 1778184367 | 22.78° C | 56% | 1012.9 hPa | 0 mm | - | 341 W/m² | - |
| 1778184049 | 23.33° C | 58% | 1012.9 hPa | 0 mm | - | 689 W/m² | - |
| 1778183740 | 23.33° C | 62% | 1012.8 hPa | 0 mm | - | 809 W/m² | - |
| 1778183467 | 22.78° C | 63% | 1012.9 hPa | 0 mm | - | 824 W/m² | - |
| 1778183155 | 22.78° C | 61% | 1013 hPa | 0 mm | - | 846 W/m² | - |
| 1778182840 | 22.22° C | 61% | 1013.3 hPa | 0 mm | - | 874 W/m² | - |
| 1778182242 | 22.22° C | 60% | 1013.6 hPa | 0 mm | - | 856 W/m² | - |
| 1778182040 | 22.22° C | 59% | 1013.6 hPa | 0 mm | - | 865 W/m² | - |
| 1778181640 | 22.22° C | 63% | 1013.6 hPa | 0 mm | - | 969 W/m² | - |
| 1778181340 | 22.78° C | 67% | 1013.6 hPa | 0 mm | - | 969 W/m² | - |
| 1778181050 | 22.78° C | 66% | 1013.6 hPa | 0 mm | - | 909 W/m² | - |
| 1778180747 | 22.78° C | 61% | 1013.5 hPa | 0 mm | - | 893 W/m² | - |
| 1778180440 | 22.78° C | 66% | 1013.4 hPa | 0 mm | - | 898 W/m² | - |
| 1778180147 | 22.78° C | 62% | 1013.4 hPa | 0 mm | - | 893 W/m² | - |
| 1778179840 | 22.22° C | 63% | 1013.6 hPa | 0 mm | - | 912 W/m² | - |
| 1778179554 | 22.22° C | 61% | 1013.6 hPa | 0 mm | - | 893 W/m² | - |
| 1778179244 | 22.22° C | 65% | 1013.6 hPa | 0 mm | - | 933 W/m² | - |
| 1778178944 | 22.22° C | 63% | 1013.5 hPa | 0 mm | - | 918 W/m² | - |
| 1778178642 | 22.22° C | 62% | 1013.6 hPa | 0 mm | - | 933 W/m² | - |
| 1778178355 | 21.67° C | 63% | 1013.8 hPa | 0 mm | - | 937 W/m² | - |
| 1778178047 | 21.67° C | 65% | 1013.6 hPa | 0 mm | - | 946 W/m² | - |
* Rain latest hour (hover to see other rain measurements)
** Current wind speed in m/s (hover to see current wind gust speed)